createdAt,value
2019-05-15T00:00:41.249Z,14.20
2019-05-15T00:03:13.936Z,14.83
2019-05-15T00:05:46.286Z,17.13
2019-05-15T00:08:18.339Z,14.07
2019-05-15T00:10:49.691Z,14.00
2019-05-15T00:13:22.664Z,15.50
2019-05-15T00:15:54.030Z,18.23
2019-05-15T00:18:25.092Z,15.57
2019-05-15T00:20:59.506Z,18.03
2019-05-15T00:23:30.319Z,13.83
2019-05-15T00:26:02.045Z,14.27
2019-05-15T00:28:33.109Z,16.87
2019-05-15T00:31:04.474Z,17.33
2019-05-15T00:33:39.325Z,17.43
2019-05-15T00:36:12.708Z,15.70
2019-05-15T00:38:43.439Z,16.77
2019-05-15T00:41:15.681Z,15.80
2019-05-15T00:43:49.208Z,14.83
2019-05-15T00:46:22.999Z,18.40
2019-05-15T00:48:55.387Z,17.23
2019-05-15T00:51:28.317Z,14.83
2019-05-15T00:53:58.968Z,14.53
2019-05-15T00:56:29.125Z,14.10
2019-05-15T00:58:59.692Z,14.03
2019-05-15T01:01:33.175Z,15.00
2019-05-15T01:04:08.086Z,16.20
2019-05-15T01:06:40.661Z,13.97
2019-05-15T01:09:10.746Z,19.07
2019-05-15T01:11:43.051Z,19.03
2019-05-15T01:14:12.975Z,14.10
2019-05-15T01:16:43.198Z,15.43
2019-05-15T01:19:15.609Z,12.50
2019-05-15T01:21:47.920Z,16.70
2019-05-15T01:24:18.859Z,16.60
2019-05-15T01:26:51.644Z,16.53
2019-05-15T01:29:21.757Z,17.17
2019-05-15T01:31:53.148Z,16.57
2019-05-15T01:34:25.581Z,16.83
2019-05-15T01:36:59.103Z,16.43
2019-05-15T01:39:29.240Z,15.70
2019-05-15T01:42:01.294Z,14.87
2019-05-15T01:44:33.787Z,16.00
2019-05-15T01:47:03.728Z,13.23
2019-05-15T01:49:35.707Z,14.43
2019-05-15T01:52:08.035Z,13.60
2019-05-15T01:54:40.838Z,11.73
2019-05-15T01:57:13.242Z,16.48
2019-05-15T01:59:56.901Z,16.80
2019-05-15T02:02:19.389Z,16.70
2019-05-15T02:04:50.778Z,16.30
2019-05-15T02:07:23.086Z,14.00
2019-05-15T02:09:53.073Z,15.73
2019-05-15T02:12:28.565Z,16.50
2019-05-15T02:15:03.774Z,18.00
2019-05-15T02:17:36.123Z,14.73
2019-05-15T02:20:08.797Z,17.13
2019-05-15T02:22:42.558Z,17.00
2019-05-15T02:25:12.866Z,18.27
2019-05-15T02:27:43.907Z,15.37
2019-05-15T02:30:24.291Z,16.93
2019-05-15T02:32:50.851Z,18.03
2019-05-15T02:35:21.784Z,15.40
2019-05-15T02:40:29.182Z,16.00
2019-05-15T02:43:02.623Z,12.90
2019-05-15T02:45:36.662Z,17.97
2019-05-15T02:48:09.260Z,12.60
2019-05-15T02:50:40.706Z,15.03
2019-05-15T02:53:13.350Z,16.43
2019-05-15T02:55:49.172Z,16.47
2019-05-15T02:58:40.217Z,11.73
2019-05-15T03:01:12.886Z,17.07
2019-05-15T03:03:45.800Z,14.37
2019-05-15T03:06:22.158Z,13.53
2019-05-15T03:08:53.246Z,17.60
2019-05-15T03:11:29.243Z,13.80
2019-05-15T03:14:03.181Z,14.47
2019-05-15T03:16:34.564Z,12.43
2019-05-15T03:19:05.857Z,12.97
2019-05-15T03:21:38.863Z,13.40
2019-05-15T03:24:12.664Z,13.67
2019-05-15T03:26:45.530Z,12.63
2019-05-15T03:29:20.880Z,16.10
2019-05-15T03:32:06.003Z,12.40
2019-05-15T03:34:37.511Z,13.43
2019-05-15T03:37:03.851Z,15.93
2019-05-15T03:39:39.299Z,13.07
2019-05-15T03:42:10.791Z,13.93
2019-05-15T03:44:42.307Z,16.47
2019-05-15T03:47:20.096Z,28.40
2019-05-15T03:49:53.810Z,16.83
2019-05-15T03:52:33.289Z,13.73
2019-05-15T03:55:11.093Z,12.30
2019-05-15T03:57:44.648Z,12.40
2019-05-15T04:00:19.318Z,10.83
2019-05-15T04:02:49.750Z,13.40
2019-05-15T04:05:23.551Z,11.53
2019-05-15T04:07:59.811Z,10.67
2019-05-15T04:10:39.461Z,13.50
2019-05-15T04:13:09.895Z,11.10
2019-05-15T04:15:40.258Z,17.57
2019-05-15T04:18:13.627Z,9.70
2019-05-15T04:20:49.454Z,14.40
2019-05-15T04:23:24.387Z,9.47
2019-05-15T04:25:58.790Z,10.77
2019-05-15T04:28:31.473Z,10.03
2019-05-15T04:31:09.257Z,9.60
2019-05-15T04:33:43.467Z,11.77
2019-05-15T04:36:15.414Z,10.73
2019-05-15T04:38:50.115Z,10.07
2019-05-15T04:44:05.449Z,11.13
2019-05-15T04:46:42.655Z,10.50
2019-05-15T04:49:19.075Z,10.28
2019-05-15T04:51:50.022Z,12.30
2019-05-15T04:54:21.280Z,12.87
2019-05-15T04:56:51.275Z,10.97
2019-05-15T04:59:21.496Z,10.00
2019-05-15T05:02:12.957Z,9.60
2019-05-15T05:04:24.746Z,10.50
2019-05-15T05:06:58.522Z,9.70
2019-05-15T05:09:29.894Z,11.50
2019-05-15T05:12:00.017Z,10.47
2019-05-15T05:14:33.106Z,10.70
2019-05-15T05:17:05.438Z,12.43
2019-05-15T05:19:35.639Z,11.80
2019-05-15T05:22:07.869Z,10.07
2019-05-15T05:24:39.178Z,12.83
2019-05-15T05:27:12.133Z,12.60
2019-05-15T05:29:43.411Z,9.97
2019-05-15T05:32:30.911Z,11.78
2019-05-15T05:34:50.341Z,12.53
2019-05-15T05:37:23.984Z,10.53
2019-05-15T05:39:57.731Z,11.70
2019-05-15T05:42:30.616Z,13.13
2019-05-15T05:45:01.813Z,12.63
2019-05-15T05:47:33.059Z,16.23
2019-05-15T05:50:08.123Z,17.03
2019-05-15T05:52:39.215Z,11.87
2019-05-15T05:55:12.163Z,9.73
2019-05-15T05:57:45.417Z,8.23
2019-05-15T06:00:18.143Z,8.97
2019-05-15T06:02:52.274Z,9.40
2019-05-15T06:05:28.121Z,7.77
2019-05-15T06:07:58.817Z,8.30
2019-05-15T06:10:30.381Z,7.97
2019-05-15T06:13:01.441Z,7.10
2019-05-15T06:15:31.300Z,8.30
2019-05-15T06:18:03.228Z,8.80
2019-05-15T06:20:32.787Z,10.30
2019-05-15T06:23:08.533Z,9.17
2019-05-15T06:25:39.703Z,11.10
2019-05-15T06:28:12.128Z,11.37
2019-05-15T06:30:42.319Z,12.17
2019-05-15T06:33:13.729Z,11.30
2019-05-15T06:35:45.144Z,11.77
2019-05-15T06:38:19.217Z,19.80
2019-05-15T06:40:50.596Z,34.47
2019-05-15T06:43:25.027Z,41.28
2019-05-15T06:45:58.482Z,20.75
2019-05-15T06:48:33.283Z,57.00
2019-05-15T06:51:05.399Z,68.50
2019-05-15T06:53:35.298Z,21.20
2019-05-15T06:56:07.955Z,21.60
2019-05-15T06:58:42.237Z,24.40
2019-05-15T07:01:13.621Z,43.83
2019-05-15T07:03:48.710Z,21.57
2019-05-15T07:06:19.904Z,25.37
2019-05-15T07:08:52.188Z,31.30
2019-05-15T07:11:23.902Z,17.77
2019-05-15T07:13:58.082Z,15.47
2019-05-15T07:16:32.657Z,17.33
2019-05-15T07:19:04.247Z,13.17
2019-05-15T07:21:38.809Z,11.03
2019-05-15T07:24:09.322Z,33.00
2019-05-15T07:26:39.508Z,38.17
2019-05-15T07:29:10.533Z,16.37
2019-05-15T07:31:43.144Z,15.23
2019-05-15T07:34:13.245Z,15.10
2019-05-15T07:36:44.683Z,17.70
2019-05-15T07:39:18.007Z,38.63
2019-05-15T07:41:49.243Z,45.03
2019-05-15T07:44:22.222Z,37.00
2019-05-15T07:46:55.168Z,60.90
2019-05-15T07:49:28.886Z,45.00
2019-05-15T07:52:01.421Z,38.63
2019-05-15T07:54:34.046Z,40.87
2019-05-15T07:57:05.500Z,33.10
2019-05-15T07:59:35.210Z,34.03
2019-05-15T08:02:08.456Z,22.97
2019-05-15T08:04:41.136Z,19.90
2019-05-15T08:07:12.466Z,23.63
2019-05-15T08:09:45.669Z,24.03
2019-05-15T08:12:19.272Z,24.90
2019-05-15T08:14:51.471Z,19.23
2019-05-15T08:17:24.154Z,15.88
2019-05-15T08:19:54.099Z,13.20
2019-05-15T08:22:28.452Z,10.33
2019-05-15T08:25:00.877Z,8.87
2019-05-15T08:27:30.825Z,9.63
2019-05-15T08:30:02.185Z,10.90
2019-05-15T08:32:35.164Z,14.03
2019-05-15T08:35:12.701Z,34.90
2019-05-15T08:37:44.005Z,37.93
2019-05-15T08:40:17.888Z,32.70
2019-05-15T08:42:57.195Z,17.67
2019-05-15T08:45:22.081Z,12.80
2019-05-15T08:47:53.444Z,13.40
2019-05-15T08:50:24.853Z,12.98
2019-05-15T08:52:57.900Z,11.50
2019-05-15T08:55:28.958Z,10.13
2019-05-15T08:58:06.780Z,11.33
2019-05-15T09:00:33.468Z,11.40
2019-05-15T09:03:04.350Z,14.60
2019-05-15T09:05:38.667Z,16.90
2019-05-15T09:08:09.476Z,17.20
2019-05-15T09:10:41.096Z,10.03
2019-05-15T09:13:13.216Z,8.63
2019-05-15T09:15:48.204Z,8.73
2019-05-15T09:18:21.097Z,11.10
2019-05-15T09:20:52.271Z,9.30
2019-05-15T09:23:23.952Z,9.47
2019-05-15T09:25:54.237Z,12.47
2019-05-15T09:28:29.632Z,13.33
2019-05-15T09:31:02.726Z,9.27
2019-05-15T09:33:34.957Z,8.40
2019-05-15T09:36:08.819Z,10.00
2019-05-15T09:38:40.057Z,10.50
2019-05-15T09:41:11.205Z,10.27
2019-05-15T09:43:44.320Z,15.50
2019-05-15T09:46:15.417Z,8.90
2019-05-15T09:48:51.257Z,7.97
2019-05-15T09:51:18.467Z,8.97
2019-05-15T09:53:51.114Z,7.57
2019-05-15T09:56:21.125Z,8.00
2019-05-15T09:58:58.020Z,8.90
2019-05-15T10:01:28.520Z,7.23
2019-05-15T10:04:01.616Z,8.60
2019-05-15T10:06:35.948Z,10.60
2019-05-15T10:09:12.825Z,8.17
2019-05-15T10:11:43.968Z,13.27
2019-05-15T10:14:16.194Z,9.13
2019-05-15T10:16:48.763Z,8.45
2019-05-15T10:19:19.020Z,8.80
2019-05-15T10:21:52.901Z,7.93
2019-05-15T10:24:23.427Z,8.07
2019-05-15T10:26:55.036Z,7.03
2019-05-15T10:29:28.123Z,8.67
2019-05-15T10:32:00.383Z,9.10
2019-05-15T10:34:34.851Z,7.07
2019-05-15T10:37:08.487Z,6.77
2019-05-15T10:39:38.532Z,7.27
2019-05-15T10:42:11.241Z,7.83
2019-05-15T10:44:43.778Z,8.93
2019-05-15T10:47:15.363Z,8.20
2019-05-15T10:49:48.460Z,8.10
2019-05-15T10:52:19.796Z,7.07
2019-05-15T10:54:51.980Z,7.33
2019-05-15T10:57:22.201Z,9.78
2019-05-15T10:59:54.815Z,12.37
2019-05-15T11:02:25.744Z,9.47
2019-05-15T11:04:57.891Z,11.07
2019-05-15T11:07:29.379Z,10.60
2019-05-15T11:10:00.974Z,11.57
2019-05-15T11:12:34.373Z,19.30
2019-05-15T11:15:11.020Z,11.53
2019-05-15T11:17:40.587Z,8.73
2019-05-15T11:20:12.073Z,10.10
2019-05-15T11:22:42.962Z,9.70
2019-05-15T11:25:14.827Z,11.18
2019-05-15T11:27:48.589Z,14.30
2019-05-15T11:30:21.062Z,19.32
2019-05-15T11:32:52.966Z,14.40
2019-05-15T11:35:25.612Z,18.67
2019-05-15T11:37:57.231Z,14.73
2019-05-15T11:40:28.696Z,17.62
2019-05-15T11:42:58.699Z,21.23
2019-05-15T11:45:29.214Z,19.50
2019-05-15T11:48:01.094Z,21.93
2019-05-15T11:50:32.775Z,24.17
2019-05-15T11:53:02.751Z,26.20
2019-05-15T11:55:32.931Z,22.57
2019-05-15T11:58:05.898Z,26.20
2019-05-15T12:00:38.383Z,27.63
2019-05-15T12:03:09.103Z,25.80
2019-05-15T12:05:41.901Z,30.67
2019-05-15T12:08:12.624Z,26.93
2019-05-15T12:10:45.050Z,32.67
2019-05-15T12:13:20.369Z,30.60
2019-05-15T12:15:53.557Z,36.57
2019-05-15T12:18:25.149Z,36.80
2019-05-15T12:20:59.818Z,32.47
2019-05-15T12:23:32.534Z,30.73
2019-05-15T12:26:05.170Z,29.67
2019-05-15T12:28:40.597Z,26.93
2019-05-15T12:31:13.084Z,28.87
2019-05-15T12:33:45.448Z,27.30
2019-05-15T12:36:40.996Z,25.97
2019-05-15T12:38:50.298Z,28.57
2019-05-15T13:01:50.643Z,24.90
2019-05-15T13:04:23.304Z,32.67
2019-05-15T13:07:12.284Z,27.37
2019-05-15T13:09:30.307Z,32.37
2019-05-15T13:12:02.742Z,34.30
2019-05-15T13:14:35.184Z,26.70
2019-05-15T13:17:07.305Z,29.52
2019-05-15T13:19:38.917Z,30.13
2019-05-15T13:22:19.012Z,31.67
2019-05-15T13:24:44.369Z,26.43
2019-05-15T13:27:15.037Z,27.93
2019-05-15T13:29:48.662Z,22.23
2019-05-15T13:32:20.832Z,19.87
2019-05-15T13:34:54.460Z,22.37
2019-05-15T13:37:28.131Z,21.87
2019-05-15T13:39:59.050Z,19.60
2019-05-15T13:42:31.678Z,21.73
2019-05-15T13:45:01.772Z,22.07
2019-05-15T13:47:33.318Z,19.37
2019-05-15T13:50:08.130Z,19.73
2019-05-15T13:52:39.512Z,25.73
2019-05-15T13:55:12.182Z,18.77
2019-05-15T13:57:45.348Z,18.25
2019-05-15T14:00:18.993Z,22.00
2019-05-15T14:02:53.968Z,21.80
2019-05-15T14:05:25.612Z,20.40
2019-05-15T14:07:58.344Z,19.57
2019-05-15T14:10:33.106Z,20.97
2019-05-15T14:13:05.389Z,20.03
2019-05-15T14:15:40.342Z,21.63
2019-05-15T14:18:14.031Z,19.57
2019-05-15T14:20:46.046Z,22.07
2019-05-15T14:23:18.608Z,24.43
2019-05-15T14:25:51.005Z,24.27
2019-05-15T14:28:28.198Z,27.40
2019-05-15T14:31:00.095Z,23.13
2019-05-15T14:33:33.440Z,22.57
2019-05-15T14:36:08.490Z,23.83
2019-05-15T14:38:40.251Z,24.23
2019-05-15T14:41:12.760Z,25.93
2019-05-15T14:43:48.319Z,23.30
2019-05-15T14:46:23.200Z,21.35
2019-05-15T14:48:54.839Z,22.20
2019-05-15T14:51:28.339Z,21.90
2019-05-15T14:53:58.767Z,21.17
2019-05-15T14:56:31.154Z,20.50
2019-05-15T14:59:03.898Z,21.77
2019-05-15T15:01:38.256Z,22.33
2019-05-15T15:04:08.998Z,23.13
2019-05-15T15:06:41.275Z,26.65
2019-05-15T15:09:13.920Z,23.77
2019-05-15T15:11:45.255Z,26.57
2019-05-15T15:14:19.230Z,25.80
2019-05-15T15:16:52.205Z,27.07
2019-05-15T15:19:24.640Z,28.93
2019-05-15T15:21:58.022Z,27.67
2019-05-15T15:27:00.952Z,29.83
2019-05-15T15:29:30.210Z,30.90
2019-05-15T15:32:01.027Z,30.90
2019-05-15T15:34:36.055Z,30.57
2019-05-15T15:37:08.308Z,34.33
2019-05-15T15:39:41.260Z,34.47
2019-05-15T15:42:15.051Z,28.50
2019-05-15T15:44:48.740Z,25.97
2019-05-15T15:47:21.540Z,28.23
2019-05-15T15:52:28.735Z,28.43
2019-05-15T15:54:59.275Z,26.20
2019-05-15T15:57:31.977Z,27.40
2019-05-15T16:00:04.420Z,29.13
2019-05-15T16:02:35.390Z,29.83
2019-05-15T16:07:44.775Z,31.47
2019-05-15T16:10:19.041Z,32.57
2019-05-15T16:12:50.168Z,28.00
2019-05-15T16:15:30.014Z,29.48
2019-05-15T16:18:01.002Z,29.23
2019-05-15T16:20:31.045Z,28.40
2019-05-15T16:23:02.058Z,29.40
2019-05-15T16:25:33.529Z,30.10
2019-05-15T16:28:11.792Z,30.45
2019-05-15T16:30:51.146Z,30.83
2019-05-15T16:33:18.207Z,32.23
2019-05-15T16:35:52.435Z,33.70
2019-05-15T16:38:27.978Z,34.85
2019-05-15T16:41:00.054Z,31.00
2019-05-15T16:43:30.958Z,32.27
2019-05-15T16:46:02.533Z,35.00
2019-05-15T16:48:32.392Z,37.13
2019-05-15T16:51:02.324Z,35.80
2019-05-15T16:53:35.614Z,36.20
2019-05-15T16:56:07.785Z,38.40
2019-05-15T16:58:40.336Z,38.03
2019-05-15T17:01:11.681Z,35.67
2019-05-15T17:03:44.702Z,35.57
2019-05-15T17:06:18.608Z,41.93
2019-05-15T17:08:51.208Z,38.53
2019-05-15T17:11:22.297Z,39.60
2019-05-15T17:13:59.042Z,41.07
2019-05-15T17:16:29.479Z,44.20
2019-05-15T17:19:01.463Z,36.07
2019-05-15T17:21:33.325Z,38.20
2019-05-15T17:24:04.290Z,36.47
2019-05-15T17:26:38.286Z,39.57
2019-05-15T17:29:11.105Z,44.43
2019-05-15T17:31:42.679Z,40.73
2019-05-15T17:34:12.986Z,37.53
2019-05-15T17:36:45.690Z,35.23
2019-05-15T17:39:20.123Z,33.97
2019-05-15T17:41:51.302Z,35.93
2019-05-15T17:44:21.759Z,34.47
2019-05-15T17:46:53.556Z,32.30
2019-05-15T17:49:23.619Z,26.67
2019-05-15T17:51:55.662Z,23.73
2019-05-15T17:54:28.731Z,22.67
2019-05-15T17:57:01.401Z,23.70
2019-05-15T17:59:34.927Z,20.43
2019-05-15T18:02:05.409Z,20.23
2019-05-15T18:04:38.749Z,22.17
2019-05-15T18:07:09.232Z,23.03
2019-05-15T18:09:50.403Z,24.20
2019-05-15T18:12:17.486Z,24.93
2019-05-15T18:14:50.163Z,28.40
2019-05-15T18:17:21.618Z,25.77
2019-05-15T18:19:51.535Z,27.10
2019-05-15T18:22:24.023Z,25.80
2019-05-15T18:24:54.454Z,29.50
2019-05-15T18:27:25.882Z,28.97
2019-05-15T18:29:58.638Z,27.97
2019-05-15T18:32:32.056Z,28.87
2019-05-15T18:35:01.851Z,29.53
2019-05-15T18:37:34.584Z,28.63
2019-05-15T18:40:06.409Z,29.97
2019-05-15T18:42:39.410Z,31.57
2019-05-15T18:45:14.398Z,29.07
2019-05-15T18:47:45.176Z,24.53
2019-05-15T18:50:19.220Z,27.87
2019-05-15T18:52:50.384Z,28.03
2019-05-15T18:55:24.386Z,26.53
2019-05-15T18:57:58.387Z,27.83
2019-05-15T19:00:29.495Z,25.93
2019-05-15T19:03:01.674Z,27.70
2019-05-15T19:05:32.588Z,26.87
2019-05-15T19:08:12.939Z,23.17
2019-05-15T19:10:47.820Z,23.80
2019-05-15T19:13:19.255Z,21.17
2019-05-15T19:15:52.512Z,22.33
2019-05-15T19:18:23.881Z,24.27
2019-05-15T19:20:55.103Z,21.17
2019-05-15T19:23:25.070Z,22.37
2019-05-15T19:25:57.909Z,19.63
2019-05-15T19:28:29.360Z,23.70
2019-05-15T19:31:01.736Z,20.87
2019-05-15T19:33:37.249Z,24.23
2019-05-15T19:36:07.631Z,26.33
2019-05-15T19:38:38.498Z,24.57
2019-05-15T19:41:13.576Z,26.00
2019-05-15T19:43:45.875Z,29.40
2019-05-15T19:46:15.887Z,30.47
2019-05-15T19:48:48.958Z,31.90
2019-05-15T19:51:18.792Z,37.17
2019-05-15T19:53:50.232Z,34.27
2019-05-15T19:56:21.309Z,33.83
2019-05-15T19:58:52.313Z,37.33
2019-05-15T20:01:23.279Z,36.10
2019-05-15T20:03:53.385Z,40.37
2019-05-15T20:06:24.288Z,41.77
2019-05-15T20:08:56.021Z,43.60
2019-05-15T20:11:27.892Z,43.20
2019-05-15T20:13:58.932Z,41.90
2019-05-15T20:16:31.362Z,43.50
2019-05-15T20:19:03.697Z,43.73
2019-05-15T20:21:36.044Z,52.50
2019-05-15T20:24:09.123Z,54.17
2019-05-15T20:26:39.024Z,56.87
2019-05-15T20:29:09.298Z,47.10
2019-05-15T20:31:41.891Z,51.23
2019-05-15T20:34:14.830Z,50.75
2019-05-15T20:36:48.766Z,55.20
2019-05-15T20:39:20.106Z,54.63
2019-05-15T20:41:50.222Z,58.37
2019-05-15T20:44:25.315Z,55.90
2019-05-15T20:46:58.830Z,57.33
2019-05-15T20:49:30.619Z,63.63
2019-05-15T20:52:04.003Z,61.93
2019-05-15T20:54:35.112Z,55.77
2019-05-15T20:57:09.320Z,62.50
2019-05-15T20:59:40.632Z,60.33
2019-05-15T21:02:11.479Z,58.33
2019-05-15T21:04:44.351Z,70.37
2019-05-15T21:07:34.460Z,63.55
2019-05-15T21:09:53.556Z,62.20
2019-05-15T21:12:27.071Z,55.15
2019-05-15T21:14:58.126Z,59.77
2019-05-15T21:17:28.360Z,60.70
2019-05-15T21:20:01.079Z,63.03
2019-05-15T21:22:32.754Z,61.47
2019-05-15T21:25:02.843Z,66.57
2019-05-15T21:27:34.153Z,60.13
2019-05-15T21:30:08.346Z,61.27
2019-05-15T21:32:38.450Z,61.63
2019-05-15T21:35:09.893Z,68.80
2019-05-15T21:37:40.945Z,63.63
2019-05-15T21:40:12.981Z,69.58
2019-05-15T21:42:42.240Z,61.20
2019-05-15T21:45:14.631Z,62.70
2019-05-15T21:47:45.894Z,67.00
2019-05-15T21:50:19.330Z,63.63
2019-05-15T21:52:55.306Z,62.93
2019-05-15T21:55:25.139Z,60.63
2019-05-15T21:57:59.853Z,56.37
2019-05-15T22:00:38.194Z,60.90
2019-05-15T22:03:09.663Z,61.60
2019-05-15T22:05:42.976Z,62.07
2019-05-15T22:08:15.804Z,63.13
2019-05-15T22:10:48.219Z,63.63
2019-05-15T22:13:21.440Z,56.55
2019-05-15T22:15:52.286Z,68.60
2019-05-15T22:18:28.090Z,68.57
2019-05-15T22:20:58.896Z,68.13
2019-05-15T22:23:30.156Z,68.13
2019-05-15T22:26:01.246Z,67.47
2019-05-15T22:28:34.587Z,66.63
2019-05-15T22:31:08.936Z,66.53
2019-05-15T22:33:39.775Z,63.23
2019-05-15T22:36:12.312Z,68.17
2019-05-15T22:38:44.794Z,62.37
2019-05-15T22:41:19.882Z,62.47
2019-05-15T22:43:50.785Z,59.50
2019-05-15T22:46:20.833Z,71.30
2019-05-15T22:48:50.695Z,65.30
2019-05-15T22:51:21.968Z,59.38
2019-05-15T22:53:53.190Z,60.33
2019-05-15T22:56:24.286Z,58.00
2019-05-15T22:58:58.400Z,57.67
2019-05-15T23:01:32.048Z,62.27
2019-05-15T23:04:04.279Z,58.17
2019-05-15T23:06:38.444Z,54.73
2019-05-15T23:09:08.596Z,59.23
2019-05-15T23:11:39.971Z,51.90
2019-05-15T23:14:10.974Z,59.40
2019-05-15T23:16:41.321Z,56.83
2019-05-15T23:19:13.816Z,48.92
2019-05-15T23:21:45.063Z,55.97
2019-05-15T23:24:18.871Z,49.87
2019-05-15T23:26:49.090Z,54.63
2019-05-15T23:29:19.153Z,52.23
2019-05-15T23:31:52.086Z,49.20
2019-05-15T23:34:23.696Z,52.97
2019-05-15T23:36:55.081Z,48.03
2019-05-15T23:39:27.390Z,47.77
2019-05-15T23:42:00.562Z,45.50
2019-05-15T23:44:31.613Z,43.13
2019-05-15T23:47:05.184Z,40.37
2019-05-15T23:49:38.132Z,42.60
2019-05-15T23:52:08.899Z,42.77
2019-05-15T23:54:39.068Z,41.00
2019-05-15T23:57:13.895Z,37.23
2019-05-15T23:59:47.793Z,40.20
